sensor_id;sensor_type;location;lat;lon;timestamp;P1;durP1;ratioP1;P2;durP2;ratioP2
5710;SDS011;61291;52.524;13.422;2024-03-23T00:53:59;54.80;;;50.00;;
5710;SDS011;61291;52.524;13.422;2024-03-23T00:56:25;55.00;;;50.20;;
5710;SDS011;61291;52.524;13.422;2024-03-23T00:58:50;55.20;;;50.50;;
5710;SDS011;61291;52.524;13.422;2024-03-23T01:01:16;55.10;;;50.40;;
5710;SDS011;61291;52.524;13.422;2024-03-23T01:03:41;54.80;;;50.10;;
5710;SDS011;61291;52.524;13.422;2024-03-23T01:06:06;54.53;;;49.73;;
5710;SDS011;61291;52.524;13.422;2024-03-23T01:08:32;57.30;;;52.40;;
5710;SDS011;61291;52.524;13.422;2024-03-23T01:10:58;55.20;;;50.50;;
5710;SDS011;61291;52.524;13.422;2024-03-23T01:13:25;54.10;;;49.50;;
5710;SDS011;61291;52.524;13.422;2024-03-23T01:15:51;55.10;;;50.40;;
5710;SDS011;61291;52.524;13.422;2024-03-23T01:18:17;54.53;;;49.83;;
5710;SDS011;61291;52.524;13.422;2024-03-23T01:20:43;55.03;;;50.23;;
5710;SDS011;61291;52.524;13.422;2024-03-23T01:23:09;55.13;;;50.23;;
5710;SDS011;61291;52.524;13.422;2024-03-23T01:25:35;54.20;;;49.53;;
5710;SDS011;61291;52.524;13.422;2024-03-23T01:28:00;55.40;;;50.60;;
5710;SDS011;61291;52.524;13.422;2024-03-23T01:30:26;57.30;;;52.40;;
5710;SDS011;61291;52.524;13.422;2024-03-23T01:32:52;55.93;;;51.23;;
5710;SDS011;61291;52.524;13.422;2024-03-23T01:35:17;53.93;;;49.23;;
5710;SDS011;61291;52.524;13.422;2024-03-23T01:37:43;54.20;;;49.60;;
5710;SDS011;61291;52.524;13.422;2024-03-23T01:40:08;54.50;;;49.90;;
5710;SDS011;61291;52.524;13.422;2024-03-23T01:42:34;56.23;;;51.53;;
5710;SDS011;61291;52.524;13.422;2024-03-23T01:44:59;55.10;;;50.40;;
5710;SDS011;61291;52.524;13.422;2024-03-23T01:47:25;53.50;;;48.80;;
5710;SDS011;61291;52.524;13.422;2024-03-23T01:49:51;53.87;;;49.23;;
5710;SDS011;61291;52.524;13.422;2024-03-23T01:52:16;53.23;;;48.53;;
5710;SDS011;61291;52.524;13.422;2024-03-23T01:54:42;54.73;;;49.87;;
5710;SDS011;61291;52.524;13.422;2024-03-23T01:57:09;52.60;;;48.00;;
5710;SDS011;61291;52.524;13.422;2024-03-23T01:59:35;52.63;;;48.03;;
5710;SDS011;61291;52.524;13.422;2024-03-23T02:02:00;54.70;;;50.00;;
5710;SDS011;61291;52.524;13.422;2024-03-23T02:04:26;53.73;;;49.20;;
5710;SDS011;61291;52.524;13.422;2024-03-23T02:06:51;53.80;;;49.20;;
5710;SDS011;61291;52.524;13.422;2024-03-23T02:09:17;54.97;;;50.37;;
5710;SDS011;61291;52.524;13.422;2024-03-23T02:11:43;54.90;;;50.20;;
5710;SDS011;61291;52.524;13.422;2024-03-23T02:14:08;55.70;;;51.00;;
5710;SDS011;61291;52.524;13.422;2024-03-23T02:16:34;57.77;;;52.87;;
5710;SDS011;61291;52.524;13.422;2024-03-23T02:22:21;55.53;;;50.83;;
5710;SDS011;61291;52.524;13.422;2024-03-23T02:24:47;58.33;;;53.37;;
5710;SDS011;61291;52.524;13.422;2024-03-23T02:27:12;57.40;;;52.60;;
5710;SDS011;61291;52.524;13.422;2024-03-23T02:29:38;55.30;;;50.70;;
5710;SDS011;61291;52.524;13.422;2024-03-23T02:32:03;54.43;;;49.83;;
5710;SDS011;61291;52.524;13.422;2024-03-23T02:37:15;54.93;;;50.33;;
5710;SDS011;61291;52.524;13.422;2024-03-23T02:39:41;52.93;;;48.43;;
5710;SDS011;61291;52.524;13.422;2024-03-23T02:42:09;55.40;;;50.70;;
5710;SDS011;61291;52.524;13.422;2024-03-23T02:44:35;54.80;;;50.10;;
5710;SDS011;61291;52.524;13.422;2024-03-23T02:47:00;53.47;;;48.97;;
5710;SDS011;61291;52.524;13.422;2024-03-23T02:49:28;54.27;;;49.67;;
5710;SDS011;61291;52.524;13.422;2024-03-23T02:51:54;54.20;;;49.60;;
5710;SDS011;61291;52.524;13.422;2024-03-23T02:54:19;54.70;;;50.00;;
5710;SDS011;61291;52.524;13.422;2024-03-23T02:56:47;56.63;;;51.83;;
5710;SDS011;61291;52.524;13.422;2024-03-23T02:59:13;56.60;;;51.80;;
5710;SDS011;61291;52.524;13.422;2024-03-23T03:01:40;56.67;;;51.87;;
5710;SDS011;61291;52.524;13.422;2024-03-23T03:04:05;58.13;;;53.23;;
5710;SDS011;61291;52.524;13.422;2024-03-23T03:06:32;58.60;;;53.80;;
5710;SDS011;61291;52.524;13.422;2024-03-23T03:08:59;59.70;;;54.77;;
5710;SDS011;61291;52.524;13.422;2024-03-23T03:11:24;58.50;;;53.70;;
5710;SDS011;61291;52.524;13.422;2024-03-23T03:13:51;61.00;;;56.00;;
5710;SDS011;61291;52.524;13.422;2024-03-23T03:16:18;56.43;;;51.73;;
5710;SDS011;61291;52.524;13.422;2024-03-23T03:18:43;57.93;;;53.13;;
5710;SDS011;61291;52.524;13.422;2024-03-23T03:21:12;59.53;;;54.63;;
5710;SDS011;61291;52.524;13.422;2024-03-23T03:23:39;59.60;;;54.60;;
5710;SDS011;61291;52.524;13.422;2024-03-23T03:26:06;65.37;;;60.00;;
5710;SDS011;61291;52.524;13.422;2024-03-23T03:28:32;58.37;;;53.47;;
5710;SDS011;61291;52.524;13.422;2024-03-23T03:30:58;60.83;;;55.83;;
5710;SDS011;61291;52.524;13.422;2024-03-23T03:33:24;59.87;;;54.97;;
5710;SDS011;61291;52.524;13.422;2024-03-23T03:35:50;59.60;;;54.60;;
5710;SDS011;61291;52.524;13.422;2024-03-23T03:38:18;57.83;;;53.00;;
5710;SDS011;61291;52.524;13.422;2024-03-23T03:40:44;61.47;;;56.40;;
5710;SDS011;61291;52.524;13.422;2024-03-23T03:43:10;62.00;;;56.90;;
5710;SDS011;61291;52.524;13.422;2024-03-23T03:45:36;62.17;;;57.07;;
5710;SDS011;61291;52.524;13.422;2024-03-23T03:48:03;61.00;;;55.90;;
5710;SDS011;61291;52.524;13.422;2024-03-23T03:50:29;60.30;;;55.30;;
5710;SDS011;61291;52.524;13.422;2024-03-23T03:52:55;61.70;;;56.50;;
5710;SDS011;61291;52.524;13.422;2024-03-23T03:55:22;59.00;;;54.10;;
5710;SDS011;61291;52.524;13.422;2024-03-23T03:57:47;60.80;;;55.80;;
5710;SDS011;61291;52.524;13.422;2024-03-23T04:00:14;60.20;;;55.20;;
5710;SDS011;61291;52.524;13.422;2024-03-23T04:02:40;60.97;;;55.97;;
5710;SDS011;61291;52.524;13.422;2024-03-23T04:05:07;61.27;;;56.17;;
5710;SDS011;61291;52.524;13.422;2024-03-23T04:07:33;62.17;;;57.07;;
5710;SDS011;61291;52.524;13.422;2024-03-23T04:10:00;63.73;;;58.53;;
5710;SDS011;61291;52.524;13.422;2024-03-23T04:12:25;64.73;;;59.53;;
5710;SDS011;61291;52.524;13.422;2024-03-23T04:14:52;61.87;;;56.87;;
5710;SDS011;61291;52.524;13.422;2024-03-23T04:17:18;63.03;;;57.83;;
5710;SDS011;61291;52.524;13.422;2024-03-23T04:19:45;60.70;;;55.70;;
5710;SDS011;61291;52.524;13.422;2024-03-23T04:22:10;59.07;;;54.17;;
5710;SDS011;61291;52.524;13.422;2024-03-23T04:24:38;57.47;;;52.67;;
5710;SDS011;61291;52.524;13.422;2024-03-23T04:27:03;59.20;;;54.20;;
5710;SDS011;61291;52.524;13.422;2024-03-23T04:29:30;57.43;;;52.53;;
5710;SDS011;61291;52.524;13.422;2024-03-23T04:31:56;58.50;;;53.50;;
5710;SDS011;61291;52.524;13.422;2024-03-23T04:34:21;57.93;;;52.83;;
5710;SDS011;61291;52.524;13.422;2024-03-23T04:36:49;57.07;;;52.17;;
5710;SDS011;61291;52.524;13.422;2024-03-23T04:39:15;60.83;;;55.60;;
5710;SDS011;61291;52.524;13.422;2024-03-23T04:41:41;57.70;;;52.70;;
5710;SDS011;61291;52.524;13.422;2024-03-23T04:44:08;58.10;;;53.20;;
5710;SDS011;61291;52.524;13.422;2024-03-23T04:46:34;60.53;;;55.33;;
5710;SDS011;61291;52.524;13.422;2024-03-23T04:49:00;57.60;;;52.70;;
5710;SDS011;61291;52.524;13.422;2024-03-23T04:51:25;56.73;;;51.83;;
5710;SDS011;61291;52.524;13.422;2024-03-23T04:53:52;56.20;;;51.22;;
5710;SDS011;61291;52.524;13.422;2024-03-23T04:56:20;54.87;;;50.07;;
5710;SDS011;61291;52.524;13.422;2024-03-23T04:58:46;55.20;;;50.30;;
5710;SDS011;61291;52.524;13.422;2024-03-23T05:01:12;56.23;;;51.23;;
5710;SDS011;61291;52.524;13.422;2024-03-23T05:03:39;57.37;;;52.27;;
5710;SDS011;61291;52.524;13.422;2024-03-23T05:06:04;54.00;;;49.20;;
5710;SDS011;61291;52.524;13.422;2024-03-23T05:08:31;54.53;;;49.63;;
5710;SDS011;61291;52.524;13.422;2024-03-23T05:10:57;54.47;;;49.57;;
5710;SDS011;61291;52.524;13.422;2024-03-23T05:13:24;54.27;;;49.37;;
5710;SDS011;61291;52.524;13.422;2024-03-23T05:15:54;57.17;;;51.97;;
5710;SDS011;61291;52.524;13.422;2024-03-23T05:18:20;56.00;;;50.80;;
5710;SDS011;61291;52.524;13.422;2024-03-23T05:20:47;57.03;;;51.83;;
5710;SDS011;61291;52.524;13.422;2024-03-23T05:23:15;54.50;;;49.40;;
5710;SDS011;61291;52.524;13.422;2024-03-23T05:25:41;56.20;;;51.00;;
5710;SDS011;61291;52.524;13.422;2024-03-23T05:28:07;55.67;;;50.37;;
5710;SDS011;61291;52.524;13.422;2024-03-23T05:30:34;53.20;;;48.20;;
5710;SDS011;61291;52.524;13.422;2024-03-23T05:33:01;52.80;;;47.80;;
5710;SDS011;61291;52.524;13.422;2024-03-23T05:35:26;52.67;;;47.57;;
5710;SDS011;61291;52.524;13.422;2024-03-23T05:37:53;51.20;;;46.30;;
5710;SDS011;61291;52.524;13.422;2024-03-23T05:40:19;39.97;;;35.70;;
5710;SDS011;61291;52.524;13.422;2024-03-23T05:42:45;52.37;;;47.37;;
5710;SDS011;61291;52.524;13.422;2024-03-23T05:45:10;52.00;;;46.90;;
5710;SDS011;61291;52.524;13.422;2024-03-23T05:47:38;52.93;;;47.83;;
5710;SDS011;61291;52.524;13.422;2024-03-23T05:50:04;51.43;;;46.40;;
5710;SDS011;61291;52.524;13.422;2024-03-23T05:52:31;52.87;;;47.67;;
5710;SDS011;61291;52.524;13.422;2024-03-23T05:54:56;52.23;;;47.13;;
5710;SDS011;61291;52.524;13.422;2024-03-23T05:57:23;54.43;;;49.03;;
5710;SDS011;61291;52.524;13.422;2024-03-23T05:59:50;52.10;;;47.00;;
5710;SDS011;61291;52.524;13.422;2024-03-23T06:02:16;50.40;;;45.50;;
5710;SDS011;61291;52.524;13.422;2024-03-23T06:04:44;51.90;;;46.90;;
5710;SDS011;61291;52.524;13.422;2024-03-23T06:07:28;51.50;;;46.40;;
5710;SDS011;61291;52.524;13.422;2024-03-23T06:09:56;50.03;;;45.20;;
5710;SDS011;61291;52.524;13.422;2024-03-23T06:12:22;53.00;;;47.90;;
5710;SDS011;61291;52.524;13.422;2024-03-23T06:14:49;51.33;;;46.33;;
5710;SDS011;61291;52.524;13.422;2024-03-23T06:17:15;51.30;;;46.30;;
5710;SDS011;61291;52.524;13.422;2024-03-23T06:19:41;54.90;;;49.63;;
5710;SDS011;61291;52.524;13.422;2024-03-23T06:22:06;51.30;;;46.40;;
5710;SDS011;61291;52.524;13.422;2024-03-23T06:24:34;51.60;;;46.60;;
5710;SDS011;61291;52.524;13.422;2024-03-23T06:27:00;51.90;;;46.90;;
5710;SDS011;61291;52.524;13.422;2024-03-23T06:29:27;50.10;;;45.30;;
5710;SDS011;61291;52.524;13.422;2024-03-23T06:31:53;50.97;;;46.07;;
5710;SDS011;61291;52.524;13.422;2024-03-23T06:34:19;48.93;;;44.23;;
5710;SDS011;61291;52.524;13.422;2024-03-23T06:36:47;52.60;;;47.60;;
5710;SDS011;61291;52.524;13.422;2024-03-23T06:39:16;51.83;;;46.93;;
5710;SDS011;61291;52.524;13.422;2024-03-23T06:41:42;51.53;;;46.53;;
5710;SDS011;61291;52.524;13.422;2024-03-23T06:44:08;43.38;;;38.97;;
5710;SDS011;61291;52.524;13.422;2024-03-23T06:46:34;47.93;;;43.13;;
5710;SDS011;61291;52.524;13.422;2024-03-23T06:49:00;48.63;;;43.83;;
5710;SDS011;61291;52.524;13.422;2024-03-23T06:51:27;48.47;;;43.67;;
5710;SDS011;61291;52.524;13.422;2024-03-23T06:53:52;40.08;;;35.88;;
5710;SDS011;61291;52.524;13.422;2024-03-23T06:56:19;49.30;;;44.40;;
5710;SDS011;61291;52.524;13.422;2024-03-23T06:58:46;50.23;;;45.33;;
5710;SDS011;61291;52.524;13.422;2024-03-23T07:01:11;51.37;;;46.33;;
5710;SDS011;61291;52.524;13.422;2024-03-23T07:03:41;51.90;;;46.80;;
5710;SDS011;61291;52.524;13.422;2024-03-23T07:06:09;49.83;;;45.03;;
5710;SDS011;61291;52.524;13.422;2024-03-23T07:08:37;52.50;;;47.40;;
5710;SDS011;61291;52.524;13.422;2024-03-23T07:11:03;52.20;;;47.10;;
5710;SDS011;61291;52.524;13.422;2024-03-23T07:13:29;51.47;;;46.37;;
5710;SDS011;61291;52.524;13.422;2024-03-23T07:15:56;52.13;;;46.93;;
5710;SDS011;61291;52.524;13.422;2024-03-23T07:18:22;51.00;;;45.90;;
5710;SDS011;61291;52.524;13.422;2024-03-23T07:20:58;50.40;;;45.40;;
5710;SDS011;61291;52.524;13.422;2024-03-23T07:23:24;49.30;;;44.30;;
5710;SDS011;61291;52.524;13.422;2024-03-23T07:26:01;48.40;;;43.40;;
5710;SDS011;61291;52.524;13.422;2024-03-23T07:28:32;49.97;;;44.93;;
5710;SDS011;61291;52.524;13.422;2024-03-23T07:31:08;46.27;;;41.37;;
5710;SDS011;61291;52.524;13.422;2024-03-23T07:33:42;48.97;;;43.80;;
5710;SDS011;61291;52.524;13.422;2024-03-23T07:36:09;46.80;;;41.90;;
5710;SDS011;61291;52.524;13.422;2024-03-23T07:38:35;48.80;;;43.60;;
5710;SDS011;61291;52.524;13.422;2024-03-23T07:41:20;47.80;;;42.70;;
5710;SDS011;61291;52.524;13.422;2024-03-23T07:43:46;51.60;;;46.20;;
5710;SDS011;61291;52.524;13.422;2024-03-23T07:46:12;51.70;;;46.40;;
5710;SDS011;61291;52.524;13.422;2024-03-23T07:48:39;51.43;;;46.27;;
5710;SDS011;61291;52.524;13.422;2024-03-23T07:51:08;50.70;;;45.60;;
5710;SDS011;61291;52.524;13.422;2024-03-23T07:53:42;52.10;;;46.90;;
5710;SDS011;61291;52.524;13.422;2024-03-23T07:56:11;51.80;;;46.70;;
5710;SDS011;61291;52.524;13.422;2024-03-23T07:58:41;52.37;;;47.07;;
5710;SDS011;61291;52.524;13.422;2024-03-23T08:01:12;50.73;;;45.53;;
5710;SDS011;61291;52.524;13.422;2024-03-23T08:03:40;50.80;;;45.70;;
5710;SDS011;61291;52.524;13.422;2024-03-23T08:06:08;41.35;;;36.33;;
5710;SDS011;61291;52.524;13.422;2024-03-23T08:08:58;54.47;;;48.97;;
5710;SDS011;61291;52.524;13.422;2024-03-23T08:11:28;56.67;;;51.17;;
5710;SDS011;61291;52.524;13.422;2024-03-23T08:19:57;55.80;;;50.30;;
5710;SDS011;61291;52.524;13.422;2024-03-23T08:22:23;54.50;;;49.20;;
5710;SDS011;61291;52.524;13.422;2024-03-23T08:24:48;52.57;;;47.33;;
5710;SDS011;61291;52.524;13.422;2024-03-23T08:27:14;51.73;;;46.60;;
5710;SDS011;61291;52.524;13.422;2024-03-23T08:29:39;51.17;;;46.07;;
5710;SDS011;61291;52.524;13.422;2024-03-23T08:32:05;51.43;;;46.33;;
5710;SDS011;61291;52.524;13.422;2024-03-23T08:34:31;51.60;;;46.40;;
5710;SDS011;61291;52.524;13.422;2024-03-23T08:36:56;52.13;;;46.73;;
5710;SDS011;61291;52.524;13.422;2024-03-23T08:39:21;53.97;;;48.60;;
5710;SDS011;61291;52.524;13.422;2024-03-23T08:41:47;54.93;;;49.43;;
5710;SDS011;61291;52.524;13.422;2024-03-23T08:44:12;51.47;;;46.37;;
5710;SDS011;61291;52.524;13.422;2024-03-23T08:46:38;51.10;;;45.90;;
5710;SDS011;61291;52.524;13.422;2024-03-23T08:49:03;50.77;;;45.70;;
5710;SDS011;61291;52.524;13.422;2024-03-23T08:51:29;54.80;;;49.80;;
5710;SDS011;61291;52.524;13.422;2024-03-23T08:53:54;59.50;;;54.67;;
5710;SDS011;61291;52.524;13.422;2024-03-23T08:56:19;61.33;;;56.73;;
5710;SDS011;61291;52.524;13.422;2024-03-23T08:58:45;64.50;;;59.80;;
5710;SDS011;61291;52.524;13.422;2024-03-23T09:01:11;63.93;;;59.30;;
5710;SDS011;61291;52.524;13.422;2024-03-23T09:03:38;60.10;;;55.40;;
5710;SDS011;61291;52.524;13.422;2024-03-23T09:06:07;61.10;;;56.70;;
5710;SDS011;61291;52.524;13.422;2024-03-23T09:08:34;60.77;;;56.50;;
5710;SDS011;61291;52.524;13.422;2024-03-23T09:11:04;64.17;;;59.57;;
5710;SDS011;61291;52.524;13.422;2024-03-23T09:13:34;64.00;;;59.83;;
5710;SDS011;61291;52.524;13.422;2024-03-23T09:16:00;61.93;;;57.93;;
5710;SDS011;61291;52.524;13.422;2024-03-23T09:18:25;63.53;;;59.03;;
5710;SDS011;61291;52.524;13.422;2024-03-23T09:20:51;64.33;;;60.23;;
5710;SDS011;61291;52.524;13.422;2024-03-23T09:23:18;64.87;;;60.67;;
5710;SDS011;61291;52.524;13.422;2024-03-23T09:25:43;65.60;;;61.80;;
5710;SDS011;61291;52.524;13.422;2024-03-23T09:28:09;64.60;;;60.50;;
5710;SDS011;61291;52.524;13.422;2024-03-23T09:30:35;62.83;;;59.40;;
5710;SDS011;61291;52.524;13.422;2024-03-23T09:33:02;60.63;;;57.33;;
5710;SDS011;61291;52.524;13.422;2024-03-23T09:35:27;59.90;;;56.60;;
5710;SDS011;61291;52.524;13.422;2024-03-23T09:37:53;60.20;;;56.80;;
5710;SDS011;61291;52.524;13.422;2024-03-23T09:40:19;60.50;;;57.10;;
5710;SDS011;61291;52.524;13.422;2024-03-23T09:42:49;62.83;;;59.20;;
5710;SDS011;61291;52.524;13.422;2024-03-23T09:45:23;60.80;;;57.40;;
5710;SDS011;61291;52.524;13.422;2024-03-23T09:47:56;59.83;;;56.53;;
5710;SDS011;61291;52.524;13.422;2024-03-23T09:50:22;59.07;;;55.67;;
5710;SDS011;61291;52.524;13.422;2024-03-23T09:52:48;56.33;;;53.20;;
5710;SDS011;61291;52.524;13.422;2024-03-23T09:55:14;58.97;;;55.77;;
5710;SDS011;61291;52.524;13.422;2024-03-23T09:57:40;56.00;;;53.00;;
5710;SDS011;61291;52.524;13.422;2024-03-23T10:00:06;58.63;;;55.53;;
5710;SDS011;61291;52.524;13.422;2024-03-23T10:02:33;58.20;;;55.10;;
5710;SDS011;61291;52.524;13.422;2024-03-23T10:04:59;62.03;;;58.73;;
5710;SDS011;61291;52.524;13.422;2024-03-23T10:07:25;51.77;;;49.07;;
5710;SDS011;61291;52.524;13.422;2024-03-23T10:09:53;54.90;;;52.00;;
5710;SDS011;61291;52.524;13.422;2024-03-23T10:12:19;61.63;;;58.33;;
5710;SDS011;61291;52.524;13.422;2024-03-23T10:14:45;59.70;;;56.50;;
5710;SDS011;61291;52.524;13.422;2024-03-23T10:19:44;66.67;;;62.57;;
5710;SDS011;61291;52.524;13.422;2024-03-23T10:22:12;74.97;;;70.57;;
5710;SDS011;61291;52.524;13.422;2024-03-23T10:24:39;72.20;;;67.90;;
5710;SDS011;61291;52.524;13.422;2024-03-23T10:27:04;61.40;;;57.60;;
5710;SDS011;61291;52.524;13.422;2024-03-23T10:29:30;61.20;;;57.37;;
5710;SDS011;61291;52.524;13.422;2024-03-23T10:32:11;59.40;;;55.80;;
5710;SDS011;61291;52.524;13.422;2024-03-23T10:34:38;62.87;;;58.97;;
5710;SDS011;61291;52.524;13.422;2024-03-23T10:37:04;55.43;;;51.93;;
5710;SDS011;61291;52.524;13.422;2024-03-23T10:39:32;53.70;;;50.20;;
5710;SDS011;61291;52.524;13.422;2024-03-23T10:42:00;52.78;;;49.42;;
5710;SDS011;61291;52.524;13.422;2024-03-23T10:44:30;62.30;;;58.00;;
5710;SDS011;61291;52.524;13.422;2024-03-23T10:46:56;64.20;;;59.90;;
5710;SDS011;61291;52.524;13.422;2024-03-23T10:49:34;67.10;;;62.40;;
5710;SDS011;61291;52.524;13.422;2024-03-23T10:52:01;68.17;;;63.57;;
5710;SDS011;61291;52.524;13.422;2024-03-23T10:54:29;68.93;;;64.33;;
5710;SDS011;61291;52.524;13.422;2024-03-23T10:59:31;69.03;;;64.33;;
5710;SDS011;61291;52.524;13.422;2024-03-23T11:01:57;65.10;;;60.60;;
5710;SDS011;61291;52.524;13.422;2024-03-23T11:06:59;67.23;;;62.73;;
5710;SDS011;61291;52.524;13.422;2024-03-23T11:09:45;62.97;;;58.67;;
5710;SDS011;61291;52.524;13.422;2024-03-23T11:12:17;63.57;;;59.17;;
5710;SDS011;61291;52.524;13.422;2024-03-23T11:14:43;65.90;;;61.50;;
5710;SDS011;61291;52.524;13.422;2024-03-23T11:17:08;67.70;;;63.20;;
5710;SDS011;61291;52.524;13.422;2024-03-23T11:19:38;67.87;;;63.37;;
5710;SDS011;61291;52.524;13.422;2024-03-23T11:22:04;64.23;;;59.93;;
5710;SDS011;61291;52.524;13.422;2024-03-23T11:24:30;63.07;;;58.87;;
5710;SDS011;61291;52.524;13.422;2024-03-23T11:26:56;48.53;;;45.33;;
5710;SDS011;61291;52.524;13.422;2024-03-23T11:29:25;62.13;;;57.93;;
5710;SDS011;61291;52.524;13.422;2024-03-23T11:31:51;61.57;;;57.37;;
5710;SDS011;61291;52.524;13.422;2024-03-23T11:34:21;63.83;;;59.43;;
5710;SDS011;61291;52.524;13.422;2024-03-23T11:36:47;65.30;;;61.00;;
5710;SDS011;61291;52.524;13.422;2024-03-23T11:41:48;62.97;;;58.63;;
5710;SDS011;61291;52.524;13.422;2024-03-23T11:44:17;65.47;;;61.07;;
5710;SDS011;61291;52.524;13.422;2024-03-23T11:46:44;69.30;;;64.70;;
5710;SDS011;61291;52.524;13.422;2024-03-23T11:49:22;67.30;;;62.80;;
5710;SDS011;61291;52.524;13.422;2024-03-23T11:51:48;67.60;;;63.10;;
5710;SDS011;61291;52.524;13.422;2024-03-23T11:54:14;71.67;;;66.97;;
5710;SDS011;61291;52.524;13.422;2024-03-23T11:56:40;71.47;;;66.87;;
5710;SDS011;61291;52.524;13.422;2024-03-23T11:59:06;67.00;;;62.60;;
5710;SDS011;61291;52.524;13.422;2024-03-23T12:01:32;65.00;;;60.67;;
5710;SDS011;61291;52.524;13.422;2024-03-23T12:03:58;67.60;;;63.10;;
5710;SDS011;61291;52.524;13.422;2024-03-23T12:06:23;63.97;;;59.70;;
5710;SDS011;61291;52.524;13.422;2024-03-23T12:08:48;70.77;;;66.07;;
5710;SDS011;61291;52.524;13.422;2024-03-23T12:11:17;68.10;;;63.60;;
5710;SDS011;61291;52.524;13.422;2024-03-23T12:13:44;63.87;;;59.67;;
5710;SDS011;61291;52.524;13.422;2024-03-23T12:16:16;65.00;;;60.80;;
5710;SDS011;61291;52.524;13.422;2024-03-23T12:18:46;67.27;;;62.97;;
5710;SDS011;61291;52.524;13.422;2024-03-23T12:21:12;66.93;;;62.53;;
5710;SDS011;61291;52.524;13.422;2024-03-23T12:23:39;62.27;;;58.17;;
5710;SDS011;61291;52.524;13.422;2024-03-23T12:26:05;64.90;;;60.70;;
5710;SDS011;61291;52.524;13.422;2024-03-23T12:28:31;65.97;;;61.67;;
5710;SDS011;61291;52.524;13.422;2024-03-23T12:30:57;65.90;;;61.60;;
5710;SDS011;61291;52.524;13.422;2024-03-23T12:33:22;63.47;;;59.47;;
5710;SDS011;61291;52.524;13.422;2024-03-23T12:35:48;57.90;;;54.20;;
5710;SDS011;61291;52.524;13.422;2024-03-23T12:38:15;63.97;;;58.20;;
5710;SDS011;61291;52.524;13.422;2024-03-23T12:40:40;58.77;;;54.17;;
5710;SDS011;61291;52.524;13.422;2024-03-23T12:43:06;57.00;;;52.67;;
5710;SDS011;61291;52.524;13.422;2024-03-23T12:45:32;57.90;;;53.37;;
5710;SDS011;61291;52.524;13.422;2024-03-23T12:47:58;58.87;;;54.10;;
5710;SDS011;61291;52.524;13.422;2024-03-23T12:50:23;62.07;;;57.47;;
5710;SDS011;61291;52.524;13.422;2024-03-23T12:52:49;61.67;;;56.97;;
5710;SDS011;61291;52.524;13.422;2024-03-23T12:55:14;61.10;;;56.80;;
5710;SDS011;61291;52.524;13.422;2024-03-23T12:57:39;60.63;;;55.30;;
5710;SDS011;61291;52.524;13.422;2024-03-23T13:00:08;67.10;;;61.90;;
5710;SDS011;61291;52.524;13.422;2024-03-23T13:02:37;61.97;;;57.07;;
5710;SDS011;61291;52.524;13.422;2024-03-23T13:05:04;60.87;;;56.17;;
5710;SDS011;61291;52.524;13.422;2024-03-23T13:07:30;58.90;;;53.83;;
5710;SDS011;61291;52.524;13.422;2024-03-23T13:09:55;61.53;;;56.60;;
5710;SDS011;61291;52.524;13.422;2024-03-23T13:12:21;59.47;;;54.27;;
5710;SDS011;61291;52.524;13.422;2024-03-23T13:14:48;59.63;;;55.10;;
5710;SDS011;61291;52.524;13.422;2024-03-23T13:17:13;59.77;;;55.10;;
5710;SDS011;61291;52.524;13.422;2024-03-23T13:19:39;58.40;;;54.27;;
5710;SDS011;61291;52.524;13.422;2024-03-23T13:22:05;59.77;;;54.40;;
5710;SDS011;61291;52.524;13.422;2024-03-23T13:24:31;58.27;;;53.50;;
5710;SDS011;61291;52.524;13.422;2024-03-23T13:26:57;61.10;;;56.50;;
5710;SDS011;61291;52.524;13.422;2024-03-23T13:29:23;63.30;;;58.43;;
5710;SDS011;61291;52.524;13.422;2024-03-23T13:31:49;62.40;;;57.30;;
5710;SDS011;61291;52.524;13.422;2024-03-23T13:34:16;59.70;;;54.67;;
5710;SDS011;61291;52.524;13.422;2024-03-23T13:36:43;63.17;;;58.27;;
5710;SDS011;61291;52.524;13.422;2024-03-23T13:39:11;66.30;;;60.57;;
5710;SDS011;61291;52.524;13.422;2024-03-23T13:41:40;64.10;;;58.90;;
5710;SDS011;61291;52.524;13.422;2024-03-23T13:44:08;60.17;;;54.70;;
5710;SDS011;61291;52.524;13.422;2024-03-23T13:46:38;64.40;;;59.23;;
5710;SDS011;61291;52.524;13.422;2024-03-23T13:49:04;66.57;;;60.90;;
5710;SDS011;61291;52.524;13.422;2024-03-23T13:51:31;60.67;;;55.73;;
5710;SDS011;61291;52.524;13.422;2024-03-23T13:53:57;62.00;;;56.00;;
5710;SDS011;61291;52.524;13.422;2024-03-23T13:56:25;63.83;;;58.53;;
5710;SDS011;61291;52.524;13.422;2024-03-23T13:58:51;63.53;;;58.47;;
5710;SDS011;61291;52.524;13.422;2024-03-23T14:01:17;65.33;;;59.40;;
5710;SDS011;61291;52.524;13.422;2024-03-23T14:03:42;66.77;;;61.27;;
5710;SDS011;61291;52.524;13.422;2024-03-23T14:06:08;67.10;;;61.30;;
5710;SDS011;61291;52.524;13.422;2024-03-23T14:08:35;64.73;;;59.03;;
5710;SDS011;61291;52.524;13.422;2024-03-23T14:11:04;59.00;;;54.10;;
5710;SDS011;61291;52.524;13.422;2024-03-23T14:13:30;61.13;;;55.97;;
5710;SDS011;61291;52.524;13.422;2024-03-23T14:15:55;62.77;;;56.80;;
5710;SDS011;61291;52.524;13.422;2024-03-23T14:18:21;61.50;;;55.97;;
5710;SDS011;61291;52.524;13.422;2024-03-23T14:20:48;62.13;;;56.83;;
5710;SDS011;61291;52.524;13.422;2024-03-23T14:23:14;57.10;;;52.50;;
5710;SDS011;61291;52.524;13.422;2024-03-23T14:25:39;60.20;;;55.10;;
5710;SDS011;61291;52.524;13.422;2024-03-23T14:28:05;55.87;;;51.00;;
5710;SDS011;61291;52.524;13.422;2024-03-23T14:30:30;58.43;;;52.80;;
5710;SDS011;61291;52.524;13.422;2024-03-23T14:32:56;55.10;;;50.60;;
5710;SDS011;61291;52.524;13.422;2024-03-23T14:35:22;54.17;;;48.77;;
5710;SDS011;61291;52.524;13.422;2024-03-23T14:37:48;56.87;;;52.13;;
5710;SDS011;61291;52.524;13.422;2024-03-23T14:40:14;52.13;;;47.63;;
5710;SDS011;61291;52.524;13.422;2024-03-23T14:42:39;53.43;;;49.00;;
5710;SDS011;61291;52.524;13.422;2024-03-23T14:45:06;56.77;;;51.87;;
5710;SDS011;61291;52.524;13.422;2024-03-23T14:47:32;55.27;;;50.97;;
5710;SDS011;61291;52.524;13.422;2024-03-23T14:49:57;58.60;;;53.60;;
5710;SDS011;61291;52.524;13.422;2024-03-23T14:52:23;55.20;;;51.00;;
5710;SDS011;61291;52.524;13.422;2024-03-23T14:54:49;56.77;;;52.37;;
5710;SDS011;61291;52.524;13.422;2024-03-23T14:57:15;57.70;;;53.40;;
5710;SDS011;61291;52.524;13.422;2024-03-23T14:59:40;55.50;;;50.93;;
5710;SDS011;61291;52.524;13.422;2024-03-23T15:02:06;53.70;;;49.20;;
5710;SDS011;61291;52.524;13.422;2024-03-23T15:04:32;59.23;;;54.80;;
5710;SDS011;61291;52.524;13.422;2024-03-23T15:06:57;55.07;;;51.00;;
5710;SDS011;61291;52.524;13.422;2024-03-23T15:09:23;54.13;;;50.10;;
5710;SDS011;61291;52.524;13.422;2024-03-23T15:11:49;57.70;;;53.23;;
5710;SDS011;61291;52.524;13.422;2024-03-23T15:14:14;55.77;;;51.87;;
5710;SDS011;61291;52.524;13.422;2024-03-23T15:16:40;57.90;;;53.40;;
5710;SDS011;61291;52.524;13.422;2024-03-23T15:19:07;58.70;;;54.70;;
5710;SDS011;61291;52.524;13.422;2024-03-23T15:21:33;58.63;;;54.63;;
5710;SDS011;61291;52.524;13.422;2024-03-23T15:23:58;58.90;;;54.40;;
5710;SDS011;61291;52.524;13.422;2024-03-23T15:26:24;61.57;;;56.70;;
5710;SDS011;61291;52.524;13.422;2024-03-23T15:28:49;61.93;;;57.63;;
5710;SDS011;61291;52.524;13.422;2024-03-23T15:31:24;59.10;;;54.73;;
5710;SDS011;61291;52.524;13.422;2024-03-23T15:33:50;56.40;;;52.50;;